Pagrindinis puslapis
METAR-TAF:

METAR-TAF

Oro uostai :

Kosraė, Mikronezija

platuma: 05-21N, ilguma: 162-57E, Aukštis: 3 m

METAR: trūkstamas

Laikas: 10:19 (23:19 UTC)

Prognozė

Ataskaita buvo paskelbta 23 valandos ir 59 minutes, ne 23:20 UTC
Prognozė galioja nuo 04 metu 00 UTC su 04 metu 24 UTC
Vėjas 5 kt nuo kintamojo kryptimis
Matomumas: 10 km
Išsisklaidę debesys ne aukštis 1700 ft
Su prošvaistėmis ne aukštis 13000 ft
Liūtis kaimynystėje
Laikinai
nuo 04 metu 00 UTC su 04 metu 01 UTC
Matomumas: 4.8 km
Su prošvaistėmis ne aukštis 1500 ft
Apsiniaukę ne aukštis 4000 ft
lietus
Nuo 04 metu 0200 UTC
Vėjas 10 kt iš Rytų
Matomumas: 10 km
Su prošvaistėmis ne aukštis 1500 ft
Su prošvaistėmis ne aukštis 4500 ft
Apsiniaukę ne aukštis 12000 ft
Liūtis kaimynystėje

TAF: PTSA 032320Z 0400/0424 VRB05KT P6SM VCSH SCT017 BKN130 TEMPO 0400/0401 3SM SHRA BKN015 OVC040 FM040200 08010KT P6SM VCSH BKN015 BKN045 OVC120

Orai ataskaitas ir orų prognozės (METAR, TAF).

turimą stotys yra geltonos ir raudonos taškus žemėlapyje.

Perkelti pele per norėdami pamatyti stoties vardą.

Tada spustelėkite, norėdami matyti oro stebėjimo ir prognozės.

Norėdami pakeisti žemėlapį: spustelėkite ant žalios mygtukų su juodo kryžiaus žemyn,; žalią mygtuką su brūkšneliu, jei norite nutolinti; arba žalių rodyklių gretimoms žemėlapius.


METAR-TAF: